Time;durP1;ratioP1;P1;durP2;ratioP2;P2;SDS_P1;SDS_P2;PMS_P1;PMS_P2;Temp;Humidity;BMP_temperature;BMP_pressure;BME280_temperature;BME280_humidity;BME280_pressure;Samples;Min_cycle;Max_cycle;Signal;HPM_P1;HPM_P2
2021/05/30 00:00:22;;;;;;;3.30;1.98;;;;;;;17.72;58.91;100191.30;1834787;77;22175;-59
2021/05/30 00:03:08;;;;;;;5.83;1.95;;;;;;;17.64;58.88;100196.98;1773852;80;21176;-61
2021/05/30 00:05:41;;;;;;;3.37;2.22;;;;;;;17.64;58.96;100196.98;1828315;77;22606;-59
2021/05/30 00:08:15;;;;;;;3.30;2.08;;;;;;;17.62;58.97;100197.97;1812068;77;22194;-59
2021/05/30 00:10:49;;;;;;;2.30;2.02;;;;;;;17.53;59.21;100203.23;1834742;77;22183;-59
2021/05/30 00:13:23;;;;;;;3.55;2.10;;;;;;;17.56;59.21;100200.45;1828936;77;22193;-60
2021/05/30 00:15:56;;;;;;;3.70;2.33;;;;;;;17.62;59.15;100204.62;1827697;77;22143;-59
2021/05/30 00:18:29;;;;;;;3.10;2.15;;;;;;;17.54;59.27;100215.61;1827379;77;22189;-59
2021/05/30 00:21:02;;;;;;;3.05;2.10;;;;;;;17.58;59.20;100215.88;1853160;77;22179;-58
2021/05/30 00:23:36;;;;;;;3.65;2.00;;;;;;;17.59;59.22;100217.61;1808081;77;22167;-59
2021/05/30 00:26:09;;;;;;;2.98;2.15;;;;;;;17.61;59.31;100223.73;1812354;77;22155;-59
2021/05/30 00:28:42;;;;;;;2.98;2.22;;;;;;;17.63;59.27;100226.30;1824339;77;22185;-59
2021/05/30 00:31:21;;;;;;;2.80;1.82;;;;;;;17.64;59.31;100232.03;1833991;77;22171;-59
2021/05/30 00:33:55;;;;;;;10.20;2.20;;;;;;;17.65;59.30;100220.00;1812723;77;22591;-59
2021/05/30 00:36:28;;;;;;;5.42;2.08;;;;;;;17.63;59.26;100216.99;1834779;77;22179;-59
2021/05/30 00:39:02;;;;;;;3.47;2.60;;;;;;;17.63;59.30;100219.66;1819951;77;22225;-58
2021/05/30 00:41:35;;;;;;;3.27;2.15;;;;;;;17.62;59.27;100221.91;1853253;77;22567;-58
2021/05/30 00:44:28;;;;;;;2.92;2.00;;;;;;;17.59;59.33;100225.59;1818834;77;22147;-59
2021/05/30 00:47:01;;;;;;;4.20;2.00;;;;;;;17.58;59.38;100225.19;1847584;77;22170;-59
2021/05/30 00:49:35;;;;;;;4.65;1.95;;;;;;;17.59;59.32;100224.71;1834867;77;22179;-58
2021/05/30 00:52:08;;;;;;;4.55;2.05;;;;;;;17.58;59.30;100226.97;1827299;77;22166;-59
2021/05/30 00:54:42;;;;;;;3.33;2.35;;;;;;;17.54;59.26;100225.77;1834765;77;22179;-58
2021/05/30 00:57:15;;;;;;;2.87;2.15;;;;;;;17.52;59.30;100226.78;1844332;77;22190;-59
2021/05/30 00:59:49;;;;;;;2.72;2.12;;;;;;;17.50;59.26;100227.31;1834897;77;22603;-59
2021/05/30 01:02:34;;;;;;;3.60;2.00;;;;;;;17.43;59.24;100229.84;1777358;79;21564;-61
2021/05/30 01:05:09;;;;;;;4.35;2.35;;;;;;;17.45;59.20;100214.20;1853143;77;22174;-59
2021/05/30 01:07:45;;;;;;;3.33;1.95;;;;;;;17.46;59.14;100213.27;1838003;77;22178;-59
2021/05/30 01:10:35;;;;;;;3.55;1.98;;;;;;;17.39;59.12;100208.69;1792388;80;21166;-60
2021/05/30 01:13:08;;;;;;;3.00;2.17;;;;;;;17.41;59.16;100205.98;1832254;77;22189;-59
2021/05/30 01:15:41;;;;;;;5.20;2.42;;;;;;;17.31;59.34;100205.49;1834775;77;22619;-58
2021/05/30 01:18:23;;;;;;;3.02;2.10;;;;;;;17.28;59.37;100205.63;1830694;77;22210;-59
2021/05/30 01:20:56;;;;;;;2.85;2.10;;;;;;;17.26;59.41;100207.48;1833562;77;22579;-59
2021/05/30 01:23:29;;;;;;;3.87;2.05;;;;;;;17.24;59.50;100213.33;1827375;77;22609;-59
2021/05/30 01:26:03;;;;;;;3.95;2.20;;;;;;;17.20;59.56;100211.28;1853119;77;22178;-58
2021/05/30 01:28:36;;;;;;;2.47;1.87;;;;;;;17.18;59.63;100209.63;1808030;77;22170;-59
2021/05/30 01:31:10;;;;;;;2.70;2.10;;;;;;;17.15;59.69;100218.59;1827830;77;22167;-59
2021/05/30 01:34:03;;;;;;;3.98;2.42;;;;;;;17.14;59.65;100219.99;1908586;74;22621;-58
2021/05/30 01:36:37;;;;;;;3.30;2.30;;;;;;;17.12;59.65;100217.38;1834754;77;22184;-58
2021/05/30 01:39:10;;;;;;;3.33;2.30;;;;;;;17.11;59.60;100224.11;1829607;77;22123;-58
2021/05/30 01:41:43;;;;;;;4.60;2.25;;;;;;;17.06;59.58;100226.49;1806882;77;22158;-59
2021/05/30 01:44:16;;;;;;;3.27;2.30;;;;;;;16.94;59.59;100219.87;1834809;77;22180;-58
2021/05/30 01:46:50;;;;;;;4.28;1.92;;;;;;;16.82;59.60;100220.36;1831999;77;22203;-59
2021/05/30 01:49:23;;;;;;;4.00;2.27;;;;;;;16.65;59.70;100215.26;1827387;77;22189;-58
2021/05/30 01:51:57;;;;;;;3.37;2.30;;;;;;;16.50;59.81;100219.40;1848736;77;22598;-59
2021/05/30 01:54:30;;;;;;;4.17;2.27;;;;;;;16.38;59.91;100217.22;1834784;77;22179;-58
2021/05/30 01:57:08;;;;;;;10.98;3.20;;;;;;;16.28;60.10;100220.70;1825154;77;22586;-59
2021/05/30 01:59:43;;;;;;;3.05;2.45;;;;;;;16.24;60.28;100229.70;1836640;77;22134;-59
2021/05/30 02:02:15;;;;;;;5.05;3.35;;;;;;;16.20;60.41;100222.34;1810637;77;28065;-59
2021/05/30 02:04:49;;;;;;;3.75;2.67;;;;;;;16.23;60.47;100227.13;1853114;77;22234;-58
2021/05/30 02:07:22;;;;;;;3.00;2.30;;;;;;;16.22;60.45;100222.26;1813437;77;22585;-59
2021/05/30 02:09:55;;;;;;;4.50;2.10;;;;;;;16.22;60.55;100236.86;1834813;77;22208;-59
2021/05/30 02:12:29;;;;;;;5.17;2.33;;;;;;;16.17;60.65;100229.09;1841336;77;22166;-59
2021/05/30 02:15:17;;;;;;;3.22;2.50;;;;;;;16.08;60.85;100236.06;1777173;80;21268;-60
2021/05/30 02:17:50;;;;;;;5.58;3.00;;;;;;;16.04;60.98;100234.00;1817660;77;22623;-59
2021/05/30 02:20:34;;;;;;;4.72;2.35;;;;;;;16.01;61.08;100237.21;1834784;77;22160;-59
2021/05/30 02:23:12;;;;;;;4.25;3.05;;;;;;;16.01;61.13;100236.77;1814391;77;22214;-59
2021/05/30 02:25:45;;;;;;;3.35;2.22;;;;;;;16.03;61.08;100241.56;1791014;77;22134;-59
2021/05/30 02:28:19;;;;;;;3.15;2.40;;;;;;;16.05;61.07;100244.14;1811965;77;22617;-59
2021/05/30 02:30:52;;;;;;;4.03;2.60;;;;;;;16.08;61.15;100248.02;1853100;77;22202;-57
2021/05/30 02:33:26;;;;;;;3.72;2.55;;;;;;;16.11;61.20;100248.38;1830207;77;22189;-59
2021/05/30 02:35:59;;;;;;;3.08;2.58;;;;;;;16.12;61.24;100248.75;1834692;77;22606;-59
2021/05/30 02:38:33;;;;;;;4.12;2.90;;;;;;;16.15;61.30;100255.27;1794407;77;22200;-59
2021/05/30 02:41:19;;;;;;;3.33;2.50;;;;;;;16.13;61.32;100263.75;1762094;81;21171;-60
2021/05/30 02:43:53;;;;;;;3.30;2.30;;;;;;;16.18;61.32;100265.34;1821926;77;22565;-59
2021/05/30 02:46:26;;;;;;;3.67;2.40;;;;;;;16.20;61.38;100254.64;1828016;77;22191;-59
2021/05/30 02:48:59;;;;;;;4.05;2.72;;;;;;;16.24;61.48;100255.41;1820497;77;22221;-59
2021/05/30 02:51:33;;;;;;;4.00;2.27;;;;;;;16.28;61.47;100256.55;1831739;77;22115;-59
2021/05/30 02:54:19;;;;;;;3.33;2.45;;;;;;;16.32;61.48;100256.84;1765170;81;21102;-60
2021/05/30 02:56:52;;;;;;;4.12;2.92;;;;;;;16.45;61.46;100256.38;1830433;77;22140;-59
2021/05/30 02:59:27;;;;;;;4.08;2.42;;;;;;;16.52;61.47;100254.34;1815332;77;22131;-59
2021/05/30 03:02:00;;;;;;;3.83;2.65;;;;;;;16.57;61.56;100245.73;1819539;77;22198;-59
2021/05/30 03:04:33;;;;;;;5.10;2.80;;;;;;;16.70;61.46;100254.07;1841332;77;22163;-59
2021/05/30 03:07:19;;;;;;;3.90;2.55;;;;;;;16.75;61.45;100254.31;1784086;80;21161;-60
2021/05/30 03:09:53;;;;;;;4.58;3.02;;;;;;;16.89;61.49;100263.05;1841440;77;22585;-59
2021/05/30 03:12:26;;;;;;;3.47;2.52;;;;;;;16.98;61.50;100256.52;1823875;77;22170;-59
2021/05/30 03:14:59;;;;;;;3.45;2.50;;;;;;;17.08;61.60;100263.64;1826398;77;22154;-59
2021/05/30 03:17:32;;;;;;;3.22;2.47;;;;;;;17.13;61.74;100264.80;1822427;77;22195;-59
2021/05/30 03:20:18;;;;;;;6.17;2.80;;;;;;;17.15;61.83;100262.94;1761814;81;21123;-60
2021/05/30 03:22:57;;;;;;;4.30;2.80;;;;;;;17.29;61.90;100263.20;1815682;77;22209;-59
2021/05/30 03:25:30;;;;;;;4.75;2.80;;;;;;;17.38;61.95;100264.63;1834801;77;22575;-59
2021/05/30 03:28:04;;;;;;;5.75;3.10;;;;;;;17.48;62.01;100261.95;1832954;77;22182;-60
2021/05/30 03:30:37;;;;;;;7.10;3.20;;;;;;;17.58;62.13;100265.56;1834792;77;22179;-59
2021/05/30 03:33:12;;;;;;;7.17;3.65;;;;;;;17.66;62.14;100258.11;1813656;77;22194;-59
2021/05/30 03:36:08;;;;;;;4.58;2.70;;;;;;;17.81;62.18;100255.23;1827267;77;22222;-60
2021/05/30 03:38:40;;;;;;;8.78;4.12;;;;;;;17.94;62.06;100253.76;1791792;77;28055;-59
2021/05/30 03:41:16;;;;;;;5.90;3.08;;;;;;;18.00;62.56;100259.78;1834757;77;22132;-59
2021/05/30 03:43:49;;;;;;;10.00;4.30;;;;;;;18.22;62.06;100250.34;1789589;77;38822;-60
2021/05/30 03:46:36;;;;;;;6.62;3.22;;;;;;;18.24;62.11;100258.64;1760872;81;21570;-60
2021/05/30 03:49:15;;;;;;;4.20;2.70;;;;;;;18.46;62.09;100254.98;1833969;77;22117;-59
2021/05/30 03:52:11;;;;;;;4.25;2.95;;;;;;;18.64;62.00;100259.91;1826473;77;22234;-59
2021/05/30 03:54:44;;;;;;;4.30;3.10;;;;;;;18.87;61.52;100260.58;1819785;77;22142;-59
2021/05/30 03:57:18;;;;;;;4.15;2.90;;;;;;;18.94;61.52;100264.67;1824936;77;22273;-58
2021/05/30 03:59:51;;;;;;;4.35;2.75;;;;;;;19.07;61.40;100262.78;1834779;77;22180;-59
2021/05/30 04:02:25;;;;;;;3.95;2.50;;;;;;;19.21;61.20;100254.92;1823556;77;22610;-60
2021/05/30 04:04:58;;;;;;;4.12;3.02;;;;;;;19.30;61.10;100247.80;1829701;77;22171;-59
2021/05/30 04:07:36;;;;;;;3.40;2.20;;;;;;;19.43;61.30;100252.03;1822211;77;22597;-60
2021/05/30 04:10:11;;;;;;;4.15;2.40;;;;;;;19.58;60.73;100252.19;1829458;77;22120;-59
2021/05/30 04:12:45;;;;;;;4.85;2.90;;;;;;;19.69;60.61;100257.84;1789803;77;28055;-60
2021/05/30 04:15:18;;;;;;;4.53;2.40;;;;;;;19.82;60.22;100259.87;1817877;77;22185;-59
2021/05/30 04:17:52;;;;;;;3.17;2.22;;;;;;;19.91;59.88;100265.61;1802269;77;22178;-60
2021/05/30 04:20:26;;;;;;;4.67;2.47;;;;;;;19.99;59.60;100266.52;1815753;77;22574;-59
2021/05/30 04:23:00;;;;;;;4.03;2.37;;;;;;;20.06;59.53;100273.75;1812395;77;22562;-59
2021/05/30 04:25:33;;;;;;;12.33;3.10;;;;;;;20.15;59.21;100277.24;1818381;77;22625;-59
2021/05/30 04:28:06;;;;;;;4.03;2.55;;;;;;;20.26;58.93;100278.47;1800646;77;22177;-60
2021/05/30 04:30:40;;;;;;;6.58;2.40;;;;;;;20.32;58.73;100272.31;1821881;77;22193;-59
2021/05/30 04:33:13;;;;;;;8.28;2.12;;;;;;;20.35;58.60;100279.31;1813351;77;22170;-59
2021/05/30 04:35:46;;;;;;;6.55;2.40;;;;;;;20.41;58.37;100280.31;1817737;77;22190;-58
2021/05/30 04:38:19;;;;;;;3.35;2.52;;;;;;;20.46;58.27;100278.26;1818846;77;22151;-59
2021/05/30 04:40:53;;;;;;;3.02;2.22;;;;;;;20.50;58.07;100274.92;1817091;77;22111;-59
2021/05/30 04:43:27;;;;;;;6.87;2.30;;;;;;;20.50;58.15;100277.59;1808600;77;22162;-48
2021/05/30 04:46:02;;;;;;;3.05;2.25;;;;;;;20.49;57.84;100273.20;1816900;77;22617;-47
2021/05/30 04:48:35;;;;;;;3.77;2.30;;;;;;;20.46;57.86;100280.93;1808897;77;22580;-47
2021/05/30 04:51:12;;;;;;;1.98;1.70;;;;;;;20.44;57.33;100281.48;1828667;77;22131;-48
2021/05/30 04:53:45;;;;;;;2.98;2.30;;;;;;;20.46;57.15;100282.72;1806246;77;22502;-48
2021/05/30 04:56:21;;;;;;;2.80;2.40;;;;;;;20.52;57.02;100284.22;1853146;77;22178;-48
2021/05/30 04:58:54;;;;;;;3.15;1.72;;;;;;;20.49;57.19;100278.55;1816490;77;22178;-48
2021/05/30 05:01:27;;;;;;;4.40;2.10;;;;;;;20.57;57.27;100280.33;1834918;77;22179;-48
2021/05/30 05:04:07;;;;;;;3.12;1.98;;;;;;;20.67;56.74;100273.12;1819998;77;22225;-48
2021/05/30 05:06:42;;;;;;;3.40;2.50;;;;;;;20.71;56.75;100283.55;1804117;77;22620;-47
2021/05/30 05:09:18;;;;;;;4.67;1.92;;;;;;;20.79;56.72;100282.69;1817716;77;22144;-48
2021/05/30 05:11:52;;;;;;;3.08;1.92;;;;;;;20.94;56.46;100285.45;1816419;77;22182;-48
2021/05/30 05:14:25;;;;;;;2.77;2.00;;;;;;;20.99;56.26;100287.84;1820843;77;22209;-48
2021/05/30 05:17:02;;;;;;;2.47;2.08;;;;;;;21.05;56.71;100286.16;1815421;77;22186;-48
2021/05/30 05:19:38;;;;;;;3.37;1.82;;;;;;;21.19;56.87;100286.23;1820253;77;22175;-48
2021/05/30 05:22:15;;;;;;;35.33;4.22;;;;;;;21.38;56.26;100286.00;1798171;77;28098;-48
2021/05/30 05:24:49;;;;;;;4.65;1.90;;;;;;;21.63;55.93;100278.36;1820932;77;22206;-48
2021/05/30 05:27:25;;;;;;;3.62;1.80;;;;;;;21.70;55.33;100281.02;1839578;77;22147;-49
2021/05/30 05:30:02;;;;;;;3.00;2.12;;;;;;;21.86;54.60;100276.92;1831151;77;22148;-60
2021/05/30 05:32:36;;;;;;;3.72;1.85;;;;;;;22.01;53.98;100275.14;1820498;77;22638;-60
2021/05/30 05:35:11;;;;;;;5.25;1.90;;;;;;;22.14;53.59;100273.89;1837736;77;22154;-59
2021/05/30 05:37:45;;;;;;;4.03;2.27;;;;;;;22.23;52.46;100273.32;1797436;77;27999;-48
2021/05/30 05:40:38;;;;;;;3.27;1.77;;;;;;;22.27;52.21;100272.63;1847088;77;22215;-60
2021/05/30 05:43:11;;;;;;;3.65;1.50;;;;;;;22.30;52.13;100268.91;1812969;77;22621;-60
2021/05/30 05:45:45;;;;;;;2.47;1.62;;;;;;;22.35;52.19;100277.50;1834759;77;22175;-58
2021/05/30 05:48:18;;;;;;;3.52;1.85;;;;;;;22.34;52.42;100282.02;1829178;77;22183;-58
2021/05/30 05:50:51;;;;;;;3.42;1.70;;;;;;;22.50;51.87;100279.74;1814546;77;22225;-59
2021/05/30 05:53:25;;;;;;;2.12;1.60;;;;;;;22.65;51.69;100280.08;1808866;77;22163;-60
2021/05/30 05:55:58;;;;;;;4.78;1.70;;;;;;;22.77;51.15;100279.75;1831061;77;22171;-59
2021/05/30 05:58:31;;;;;;;3.37;1.92;;;;;;;22.82;51.53;100280.31;1826511;77;22618;-59
2021/05/30 06:01:05;;;;;;;2.62;1.45;;;;;;;23.11;51.19;100282.04;1832935;77;22179;-49
2021/05/30 06:03:38;;;;;;;2.42;1.42;;;;;;;23.34;51.01;100279.68;1807513;77;22229;-49
2021/05/30 06:06:18;;;;;;;4.22;1.98;;;;;;;23.52;49.94;100282.44;1830801;77;22111;-60
2021/05/30 06:08:52;;;;;;;4.15;2.30;;;;;;;23.68;49.95;100278.70;1804645;77;22633;-60
2021/05/30 06:11:25;;;;;;;5.15;2.70;;;;;;;23.83;49.10;100280.81;1815775;77;22158;-59
2021/05/30 06:13:58;;;;;;;9.25;2.87;;;;;;;23.98;48.59;100277.52;1820532;77;22221;-57
2021/05/30 06:16:31;;;;;;;3.10;1.72;;;;;;;24.30;49.09;100276.62;1853144;77;22198;-59
2021/05/30 06:19:05;;;;;;;3.40;1.60;;;;;;;24.72;48.81;100276.81;1834397;77;22575;-59
2021/05/30 06:21:39;;;;;;;3.92;1.65;;;;;;;25.15;47.96;100273.60;1834616;77;22204;-59
2021/05/30 06:24:12;;;;;;;3.72;2.10;;;;;;;25.43;47.07;100264.75;1834770;77;22167;-58
2021/05/30 06:26:45;;;;;;;4.25;1.90;;;;;;;25.56;45.98;100269.23;1817986;77;22201;-59
2021/05/30 06:29:19;;;;;;;4.97;2.50;;;;;;;25.78;45.33;100268.42;1808637;77;22582;-57
2021/05/30 06:32:06;;;;;;;3.10;1.98;;;;;;;25.92;45.71;100273.59;1756407;81;21304;-60
2021/05/30 06:34:46;;;;;;;8.38;2.40;;;;;;;26.24;43.11;100268.00;1852260;77;22103;-49
2021/05/30 06:37:19;;;;;;;5.08;1.90;;;;;;;26.32;44.05;100266.02;1825196;77;22205;-49
2021/05/30 06:39:53;;;;;;;3.33;1.67;;;;;;;26.56;43.27;100271.27;1834797;77;22179;-50
2021/05/30 06:42:26;;;;;;;10.72;2.83;;;;;;;26.67;42.52;100263.63;1823731;77;22190;-49
2021/05/30 06:45:00;;;;;;;4.78;1.60;;;;;;;26.79;42.48;100266.68;1850079;77;22547;-50
2021/05/30 06:47:33;;;;;;;3.83;1.40;;;;;;;26.89;41.65;100261.91;1833705;77;22198;-49
2021/05/30 06:50:08;;;;;;;2.40;1.57;;;;;;;26.85;41.27;100261.28;1834895;77;22179;-50
2021/05/30 06:52:42;;;;;;;4.20;1.47;;;;;;;26.62;41.54;100269.42;1818832;77;22187;-50
2021/05/30 06:55:19;;;;;;;2.95;1.30;;;;;;;26.53;41.69;100270.17;1852943;77;22195;-50
2021/05/30 06:57:50;;;;;;;2.85;1.40;;;;;;;26.43;41.43;100270.91;1818521;77;22190;-50
2021/05/30 07:00:24;;;;;;;4.42;1.40;;;;;;;26.31;41.62;100275.94;1834925;77;22179;-49
2021/05/30 07:02:57;;;;;;;2.45;1.30;;;;;;;26.35;41.25;100279.27;1806289;77;22174;-50
2021/05/30 07:05:31;;;;;;;8.18;1.90;;;;;;;26.43;41.08;100282.21;1818910;77;22162;-50
2021/05/30 07:08:05;;;;;;;2.40;1.40;;;;;;;26.57;40.80;100280.58;1815308;77;22190;-50
2021/05/30 07:10:38;;;;;;;2.60;1.50;;;;;;;26.76;41.25;100277.73;1853111;77;22178;-50
2021/05/30 07:13:12;;;;;;;3.12;1.87;;;;;;;26.87;40.49;100278.22;1805958;77;22217;-49
2021/05/30 07:15:45;;;;;;;2.17;1.55;;;;;;;26.86;40.10;100283.25;1819779;77;22159;-49
2021/05/30 07:18:19;;;;;;;3.27;1.52;;;;;;;26.77;40.44;100277.22;1812021;77;22218;-50
2021/05/30 07:20:53;;;;;;;2.52;1.27;;;;;;;26.82;40.54;100279.95;1834781;77;22725;-50
2021/05/30 07:23:26;;;;;;;3.37;1.40;;;;;;;26.96;40.86;100273.88;1795753;77;22611;-50
2021/05/30 07:26:01;;;;;;;1.95;1.30;;;;;;;27.21;40.05;100271.84;1853116;77;22178;-50
2021/05/30 07:28:34;;;;;;;2.50;1.30;;;;;;;27.41;39.48;100268.28;1826277;77;22605;-50
2021/05/30 07:31:22;;;;;;;3.05;1.52;;;;;;;27.54;39.16;100270.84;1792739;80;21091;-50
2021/05/30 07:33:55;;;;;;;3.45;1.52;;;;;;;27.86;39.31;100273.08;1821590;77;22185;-50
2021/05/30 07:36:29;;;;;;;4.83;1.60;;;;;;;27.96;38.41;100279.40;1842570;77;22606;-49
2021/05/30 07:39:02;;;;;;;3.40;1.50;;;;;;;27.84;38.64;100275.92;1808361;77;22230;-49
2021/05/30 07:41:35;;;;;;;4.37;1.70;;;;;;;27.77;38.27;100276.09;1814890;77;22138;-49
2021/05/30 07:44:09;;;;;;;4.35;1.45;;;;;;;27.55;37.84;100278.45;1824293;77;22155;-49
2021/05/30 07:46:42;;;;;;;1.98;1.27;;;;;;;27.41;39.01;100279.09;1833724;77;22180;-49
2021/05/30 07:49:15;;;;;;;2.87;1.27;;;;;;;27.67;38.45;100279.23;1832449;77;22167;-48
2021/05/30 07:51:48;;;;;;;1.92;1.40;;;;;;;27.79;37.25;100282.23;1822707;77;22146;-49
2021/05/30 07:54:22;;;;;;;2.37;1.20;;;;;;;27.70;36.95;100278.48;1830854;77;22179;-48
2021/05/30 07:56:56;;;;;;;5.53;1.22;;;;;;;27.64;37.38;100273.61;1830794;77;22184;-48
2021/05/30 07:59:29;;;;;;;3.60;1.02;;;;;;;27.58;37.63;100271.42;1814050;77;22153;-49
2021/05/30 08:02:02;;;;;;;1.00;0.82;;;;;;;27.63;37.73;100271.89;1829253;77;22187;-49
2021/05/30 08:04:36;;;;;;;1.85;1.00;;;;;;;27.64;37.78;100276.31;1834899;77;22179;-49
2021/05/30 08:07:09;;;;;;;1.55;1.10;;;;;;;27.64;37.92;100275.44;1827695;77;22174;-48
2021/05/30 08:09:43;;;;;;;2.17;1.05;;;;;;;27.65;37.29;100281.20;1851460;77;22115;-48
2021/05/30 08:12:16;;;;;;;2.55;1.10;;;;;;;27.72;37.58;100282.39;1844150;77;22671;-49
2021/05/30 08:14:49;;;;;;;4.72;1.62;;;;;;;27.84;36.49;100285.39;1834745;77;22180;-50
2021/05/30 08:17:22;;;;;;;3.62;1.00;;;;;;;27.98;37.43;100276.06;1816857;77;22656;-48
2021/05/30 08:19:55;;;;;;;2.60;1.40;;;;;;;28.27;37.02;100279.41;1809117;77;22139;-48
2021/05/30 08:22:29;;;;;;;1.30;0.90;;;;;;;28.39;36.64;100277.97;1831953;77;22614;-49
2021/05/30 08:25:03;;;;;;;2.67;1.10;;;;;;;28.41;36.36;100284.10;1853116;77;22155;-49
2021/05/30 08:27:37;;;;;;;3.10;0.90;;;;;;;28.33;36.06;100288.86;1806553;77;22621;-48
2021/05/30 08:30:12;;;;;;;2.10;1.30;;;;;;;28.12;36.70;100290.27;1834741;77;22231;-48
2021/05/30 08:32:45;;;;;;;2.08;1.20;;;;;;;27.99;37.37;100285.05;1837579;77;22171;-49
2021/05/30 08:35:18;;;;;;;2.33;1.45;;;;;;;28.14;37.79;100289.13;1846404;77;22577;-49
2021/05/30 08:37:51;;;;;;;1.05;0.90;;;;;;;28.35;37.11;100286.88;1803290;77;22165;-49
2021/05/30 08:40:24;;;;;;;2.02;1.25;;;;;;;28.60;37.10;100287.36;1816829;77;22636;-49
2021/05/30 08:43:17;;;;;;;2.77;1.40;;;;;;;28.81;36.93;100290.52;1817326;77;22658;-49
2021/05/30 08:45:50;;;;;;;1.72;1.20;;;;;;;29.02;36.64;100284.98;1832315;77;22194;-49
2021/05/30 08:48:37;;;;;;;4.42;1.30;;;;;;;28.94;36.16;100293.31;1749272;80;21317;-49
2021/05/30 08:51:12;;;;;;;1.82;1.20;;;;;;;29.01;35.50;100294.11;1812386;77;22210;-49
2021/05/30 08:53:46;;;;;;;1.45;1.07;;;;;;;28.83;35.25;100290.72;1806010;77;22222;-49
2021/05/30 08:56:20;;;;;;;4.37;1.40;;;;;;;28.78;35.09;100283.03;1831688;77;22167;-48
2021/05/30 08:59:03;;;;;;;1.72;1.07;;;;;;;28.69;35.36;100281.63;1820529;77;22193;-50
2021/05/30 09:01:43;;;;;;;3.45;0.80;;;;;;;28.78;35.83;100284.86;1834747;77;22136;-50
2021/05/30 09:04:17;;;;;;;1.30;1.00;;;;;;;29.27;35.18;100281.33;1847780;77;22166;-49
2021/05/30 09:06:53;;;;;;;2.40;1.07;;;;;;;29.50;35.18;100294.12;1820616;77;22572;-59
2021/05/30 09:09:40;;;;;;;2.45;1.05;;;;;;;29.75;34.88;100288.58;1818882;77;22218;-58
2021/05/30 09:12:34;;;;;;;1.92;1.17;;;;;;;29.73;33.60;100287.03;1818340;77;22741;-59
2021/05/30 09:15:47;;;;;;;1.42;1.10;;;;;;;29.73;33.59;100293.30;1834199;77;22213;-58
2021/05/30 09:18:15;;;;;;;1.95;1.00;;;;;;;29.66;33.26;100291.68;1833008;77;22189;-59
2021/05/30 09:21:04;;;;;;;11.12;1.62;;;;;;;29.36;33.34;100296.23;1834712;77;22148;-59
2021/05/30 09:23:42;;;;;;;3.17;0.90;;;;;;;29.27;34.85;100294.89;1807767;77;22626;-59
2021/05/30 09:26:24;;;;;;;2.80;1.00;;;;;;;29.49;33.45;100296.47;1825087;78;22143;-59
2021/05/30 09:29:11;;;;;;;1.65;1.07;;;;;;;29.50;32.90;100292.77;1820943;77;22613;-59
2021/05/30 09:31:58;;;;;;;5.37;1.20;;;;;;;29.36;32.89;100297.58;1793162;80;21597;-59
2021/05/30 09:34:34;;;;;;;1.37;1.00;;;;;;;29.32;32.54;100302.09;1852369;77;22131;-59
2021/05/30 09:37:08;;;;;;;4.10;1.37;;;;;;;29.27;32.76;100303.02;1828132;77;22587;-59
2021/05/30 09:39:48;;;;;;;5.03;1.40;;;;;;;29.10;32.98;100300.03;1834760;77;22179;-57
2021/05/30 09:42:37;;;;;;;5.25;1.12;;;;;;;29.12;32.82;100302.11;1815730;77;22214;-59
2021/05/30 09:45:11;;;;;;;2.10;1.00;;;;;;;29.10;31.17;100301.39;1834738;77;22144;-59
2021/05/30 09:47:47;;;;;;;2.45;1.42;;;;;;;28.82;31.30;100299.84;1837684;77;22189;-59
2021/05/30 09:50:21;;;;;;;2.70;1.15;;;;;;;28.91;32.48;100298.16;1830313;77;22143;-58
2021/05/30 09:52:55;;;;;;;2.60;1.00;;;;;;;29.05;31.99;100299.59;1817489;77;22642;-59
2021/05/30 09:55:33;;;;;;;3.12;1.32;;;;;;;29.49;32.29;100293.77;1834694;77;22203;-57
2021/05/30 09:58:17;;;;;;;1.65;1.05;;;;;;;30.05;31.61;100296.67;1814657;77;22186;-58
2021/05/30 10:00:58;;;;;;;1.87;0.90;;;;;;;30.26;30.55;100286.44;1835945;77;22119;-58
2021/05/30 10:03:35;;;;;;;1.45;1.00;;;;;;;30.34;29.73;100292.98;1808899;77;22162;-58
2021/05/30 10:06:09;;;;;;;3.98;1.30;;;;;;;30.34;29.56;100291.62;1834665;77;22251;-57
2021/05/30 10:08:43;;;;;;;2.62;0.90;;;;;;;30.64;29.29;100286.94;1805331;77;22158;-58
2021/05/30 10:11:18;;;;;;;3.70;1.00;;;;;;;30.95;29.34;100287.94;1834698;77;22244;-58
2021/05/30 10:14:05;;;;;;;1.67;0.95;;;;;;;31.04;28.56;100300.60;1761553;81;21324;-59
2021/05/30 10:16:58;;;;;;;1.22;0.88;;;;;;;30.80;27.73;100296.61;1835945;77;22321;-58
2021/05/30 10:19:45;;;;;;;2.22;0.85;;;;;;;30.79;28.46;100304.41;1825783;77;22143;-58
2021/05/30 10:22:18;;;;;;;1.82;1.10;;;;;;;30.82;27.83;100300.03;1825589;77;22219;-58
2021/05/30 10:24:52;;;;;;;1.87;1.02;;;;;;;30.81;27.69;100304.27;1834744;77;22618;-58
2021/05/30 10:27:30;;;;;;;2.33;1.10;;;;;;;31.07;27.71;100303.02;1823888;77;22633;-59
2021/05/30 10:30:13;;;;;;;3.65;1.15;;;;;;;31.17;27.68;100302.09;1834762;77;22564;-58
2021/05/30 10:33:14;;;;;;;2.40;1.05;;;;;;;31.39;28.26;100298.03;1775353;80;21159;-59
2021/05/30 10:35:48;;;;;;;2.10;1.07;;;;;;;31.96;26.79;100295.42;1853027;77;22151;-58
2021/05/30 10:38:44;;;;;;;2.55;1.15;;;;;;;32.38;27.06;100296.00;1811125;77;22187;-58
2021/05/30 10:41:19;;;;;;;1.82;1.20;;;;;;;32.63;26.72;100287.94;1826461;77;20159;-57
2021/05/30 10:43:53;;;;;;;1.65;1.37;;;;;;;32.42;25.91;100283.77;1801845;77;20141;-58
2021/05/30 10:46:27;;;;;;;3.50;1.30;;;;;;;32.24;25.92;100287.92;1819819;77;22175;-57
2021/05/30 10:49:09;;;;;;;3.98;1.60;;;;;;;32.27;26.08;100286.72;1807301;77;22209;-57
2021/05/30 10:51:47;;;;;;;3.70;1.27;;;;;;;31.98;26.89;100293.39;1819954;77;22143;-58
2021/05/30 10:54:18;;;;;;;3.60;1.50;;;;;;;30.92;28.19;100295.03;1825422;77;22182;-57
2021/05/30 10:56:56;;;;;;;1.72;1.02;;;;;;;30.96;28.09;100290.48;1813973;77;22202;-58
2021/05/30 10:59:43;;;;;;;13.90;2.00;;;;;;;30.70;28.37;100290.38;1779083;80;21261;-58
2021/05/30 11:02:17;;;;;;;3.98;1.30;;;;;;;30.67;29.53;100292.91;1810190;77;22174;-58
2021/05/30 11:04:50;;;;;;;1.75;0.98;;;;;;;30.71;29.55;100286.66;1819894;77;22213;-57
2021/05/30 11:07:35;;;;;;;2.85;1.15;;;;;;;30.99;28.79;100285.27;1826828;77;22173;-58
2021/05/30 11:10:21;;;;;;;2.70;1.37;;;;;;;31.19;28.67;100281.91;1793121;80;21578;-58
2021/05/30 11:12:55;;;;;;;9.63;2.17;;;;;;;31.31;28.05;100285.23;1801761;77;22206;-58
2021/05/30 11:15:30;;;;;;;3.98;1.20;;;;;;;31.36;28.27;100286.11;1834695;77;22179;-57
2021/05/30 11:18:04;;;;;;;1.67;1.20;;;;;;;31.37;27.98;100290.54;1800806;77;22201;-58
2021/05/30 11:20:51;;;;;;;2.55;1.35;;;;;;;31.32;28.03;100296.47;1761743;81;21162;-59
2021/05/30 11:23:26;;;;;;;4.85;1.30;;;;;;;30.90;28.79;100306.56;1799830;77;22166;-58
2021/05/30 11:25:59;;;;;;;5.22;1.62;;;;;;;30.98;28.63;100312.09;1818754;77;22140;-58
2021/05/30 11:28:33;;;;;;;2.87;1.50;;;;;;;30.49;28.35;100312.33;1814742;77;22181;-58
2021/05/30 11:31:07;;;;;;;2.92;1.35;;;;;;;30.04;29.02;100318.87;1823632;77;22166;-58
2021/05/30 11:33:48;;;;;;;3.83;1.50;;;;;;;29.89;29.74;100319.81;1793597;77;22224;-58
2021/05/30 11:36:29;;;;;;;2.62;1.50;;;;;;;29.32;31.46;100321.06;1825062;77;22151;-58
2021/05/30 11:39:16;;;;;;;8.13;1.55;;;;;;;29.30;31.53;100318.52;1796578;77;22194;-58
2021/05/30 11:41:56;;;;;;;7.90;1.40;;;;;;;28.94;32.64;100333.94;1822491;77;22155;-59
2021/05/30 11:44:48;;;;;;;7.15;1.40;;;;;;;28.71;33.05;100337.34;1822697;77;22200;-59
2021/05/30 11:47:21;;;;;;;4.80;1.52;;;;;;;28.28;33.19;100340.66;1818559;77;22158;-58
2021/05/30 11:49:54;;;;;;;3.58;1.25;;;;;;;27.83;34.58;100345.00;1819076;77;22616;-59
2021/05/30 11:52:28;;;;;;;6.58;2.40;;;;;;;27.39;34.80;100348.63;1816531;77;22162;-59
2021/05/30 11:55:17;;;;;;;4.25;1.50;;;;;;;26.98;35.98;100355.15;1761885;81;21163;-58
2021/05/30 11:57:50;;;;;;;4.08;1.60;;;;;;;26.57;36.38;100355.30;1804012;77;22652;-59
2021/05/30 12:00:25;;;;;;;7.25;1.70;;;;;;;26.29;36.66;100364.23;1831082;77;22147;-58
2021/05/30 12:03:09;;;;;;;2.58;1.45;;;;;;;25.94;38.12;100363.78;1807781;77;22173;-59
2021/05/30 12:05:42;;;;;;;4.55;1.67;;;;;;;25.54;38.87;100367.21;1820121;77;22539;-59